createdAt,value
2023-03-24T00:08:55.976Z,3.70
2023-03-24T00:13:52.659Z,2.67
2023-03-24T00:23:56.236Z,3.00
2023-03-24T00:28:53.047Z,2.92
2023-03-24T00:33:51.276Z,2.88
2023-03-24T00:38:48.568Z,2.88
2023-03-24T00:43:50.935Z,2.30
2023-03-24T00:48:51.108Z,2.50
2023-03-24T00:53:47.767Z,2.60
2023-03-24T01:03:48.244Z,2.53
2023-03-24T01:08:45.875Z,2.33
2023-03-24T01:13:42.616Z,2.40
2023-03-24T01:28:39.950Z,2.67
2023-03-24T01:33:37.711Z,2.40
2023-03-24T01:38:34.733Z,2.22
2023-03-24T01:43:33.629Z,3.10
2023-03-24T01:48:38.587Z,2.25
2023-03-24T01:53:38.878Z,2.00
2023-03-24T01:58:37.062Z,1.90
2023-03-24T02:03:38.931Z,2.60
2023-03-24T02:08:48.325Z,1.88
2023-03-24T02:13:44.946Z,2.30
2023-03-24T02:19:00.573Z,2.35
2023-03-24T02:24:16.434Z,2.13
2023-03-24T02:29:31.318Z,2.28
2023-03-24T02:34:49.949Z,2.15
2023-03-24T02:40:20.877Z,2.33
2023-03-24T02:45:35.798Z,2.30
2023-03-24T02:50:42.274Z,2.40
2023-03-24T02:55:44.805Z,2.10
2023-03-24T03:00:47.522Z,2.33
2023-03-24T03:05:49.257Z,1.88
2023-03-24T03:10:47.827Z,2.40
2023-03-24T03:15:47.991Z,2.13
2023-03-24T03:20:53.152Z,2.38
2023-03-24T03:25:53.403Z,2.65
2023-03-24T03:30:59.312Z,2.30
2023-03-24T03:36:14.471Z,2.60
2023-03-24T03:41:11.387Z,2.30
2023-03-24T03:46:08.626Z,2.50
2023-03-24T03:51:13.909Z,2.38
2023-03-24T03:56:11.229Z,2.78
2023-03-24T04:06:30.034Z,2.60
2023-03-24T04:11:34.144Z,2.95
2023-03-24T04:16:45.493Z,2.88
2023-03-24T04:22:03.018Z,2.72
2023-03-24T04:27:02.973Z,2.40
2023-03-24T04:32:05.831Z,2.47
2023-03-24T04:37:12.669Z,2.95
2023-03-24T04:42:21.132Z,3.38
2023-03-24T04:47:20.552Z,2.88
2023-03-24T04:52:18.074Z,2.67
2023-03-24T04:57:15.787Z,3.03
2023-03-24T05:02:12.481Z,2.70
2023-03-24T05:12:06.380Z,2.55
2023-03-24T05:17:05.076Z,2.83
2023-03-24T05:22:01.890Z,2.92
2023-03-24T05:26:58.436Z,2.90
2023-03-24T05:31:54.931Z,2.70
2023-03-24T05:37:20.419Z,2.70
2023-03-24T05:42:27.927Z,2.15
2023-03-24T05:47:24.482Z,2.75
2023-03-24T05:57:21.272Z,2.50
2023-03-24T06:02:34.627Z,2.70
2023-03-24T06:07:32.172Z,2.13
2023-03-24T06:32:45.394Z,2.70
2023-03-24T16:44:37.216Z,1.90
2023-03-24T16:49:37.843Z,1.75
2023-03-24T16:54:34.828Z,2.15
2023-03-24T16:59:32.558Z,1.90
2023-03-24T18:52:52.135Z,1.83
2023-03-24T21:26:58.029Z,1.30
2023-03-24T21:31:55.895Z,1.55
2023-03-24T21:36:55.427Z,1.60
2023-03-24T21:41:52.231Z,1.77
2023-03-24T21:46:48.749Z,1.42
2023-03-24T21:51:45.262Z,1.90
2023-03-24T21:56:41.764Z,1.25
2023-03-24T22:01:38.268Z,1.33
2023-03-24T22:06:37.725Z,1.45
2023-03-24T22:11:35.682Z,1.23
2023-03-24T22:16:33.007Z,1.33
2023-03-24T22:21:29.637Z,1.35
2023-03-24T22:26:26.179Z,1.35
2023-03-24T22:31:24.802Z,1.83
2023-03-24T22:36:21.313Z,1.85
2023-03-24T22:41:17.829Z,1.90
2023-03-24T22:46:14.343Z,1.55
2023-03-24T22:51:16.630Z,1.25
2023-03-24T22:56:13.732Z,2.50
2023-03-24T23:01:10.408Z,1.83
2023-03-24T23:06:07.321Z,2.17
2023-03-24T23:11:06.427Z,2.50
2023-03-24T23:16:02.914Z,2.05
2023-03-24T23:21:09.016Z,2.42
2023-03-24T23:26:11.153Z,2.08
2023-03-24T23:31:13.413Z,2.53
2023-03-24T23:36:15.980Z,2.60
2023-03-24T23:41:15.100Z,2.30
2023-03-24T23:46:11.874Z,2.17
2023-03-24T23:56:07.233Z,2.60
